sensor_id;sensor_type;location;lat;lon;timestamp;temperature;humidity
2945;DHT22;1482;51.398;7.128;2023-10-31T00:00:22;12.90;1.00
2945;DHT22;1482;51.398;7.128;2023-10-31T00:02:48;12.80;1.00
2945;DHT22;1482;51.398;7.128;2023-10-31T00:05:14;12.70;1.00
2945;DHT22;1482;51.398;7.128;2023-10-31T00:07:40;12.40;1.00
2945;DHT22;1482;51.398;7.128;2023-10-31T00:10:05;12.30;1.00
2945;DHT22;1482;51.398;7.128;2023-10-31T00:12:32;12.20;1.00
2945;DHT22;1482;51.398;7.128;2023-10-31T00:14:57;12.10;1.00
2945;DHT22;1482;51.398;7.128;2023-10-31T00:17:23;11.90;1.00
2945;DHT22;1482;51.398;7.128;2023-10-31T00:19:48;11.80;1.00
2945;DHT22;1482;51.398;7.128;2023-10-31T00:22:14;11.80;1.00
2945;DHT22;1482;51.398;7.128;2023-10-31T00:24:39;11.70;1.00
2945;DHT22;1482;51.398;7.128;2023-10-31T00:27:05;11.70;1.00
2945;DHT22;1482;51.398;7.128;2023-10-31T00:29:30;11.70;1.00
2945;DHT22;1482;51.398;7.128;2023-10-31T00:31:56;11.70;1.00
2945;DHT22;1482;51.398;7.128;2023-10-31T00:34:21;11.60;1.00
2945;DHT22;1482;51.398;7.128;2023-10-31T00:36:47;11.70;1.00
2945;DHT22;1482;51.398;7.128;2023-10-31T00:39:12;11.60;1.00
2945;DHT22;1482;51.398;7.128;2023-10-31T00:41:39;11.60;1.00
2945;DHT22;1482;51.398;7.128;2023-10-31T00:44:09;11.50;1.00
2945;DHT22;1482;51.398;7.128;2023-10-31T00:46:35;11.50;1.00
2945;DHT22;1482;51.398;7.128;2023-10-31T00:49:00;11.40;1.00
2945;DHT22;1482;51.398;7.128;2023-10-31T00:51:26;11.50;1.00
2945;DHT22;1482;51.398;7.128;2023-10-31T00:53:51;11.40;1.00
2945;DHT22;1482;51.398;7.128;2023-10-31T00:56:17;11.40;1.00
2945;DHT22;1482;51.398;7.128;2023-10-31T00:58:42;11.40;1.00
2945;DHT22;1482;51.398;7.128;2023-10-31T01:01:08;11.40;1.00
2945;DHT22;1482;51.398;7.128;2023-10-31T01:03:34;11.40;1.00
2945;DHT22;1482;51.398;7.128;2023-10-31T01:05:59;11.40;99.90
2945;DHT22;1482;51.398;7.128;2023-10-31T01:08:25;11.30;99.90
2945;DHT22;1482;51.398;7.128;2023-10-31T01:10:50;11.30;99.90
2945;DHT22;1482;51.398;7.128;2023-10-31T01:13:16;11.20;99.90
2945;DHT22;1482;51.398;7.128;2023-10-31T01:15:42;11.30;99.90
2945;DHT22;1482;51.398;7.128;2023-10-31T01:18:07;11.30;99.90
2945;DHT22;1482;51.398;7.128;2023-10-31T01:20:33;11.30;99.90
2945;DHT22;1482;51.398;7.128;2023-10-31T01:22:58;11.20;99.90
2945;DHT22;1482;51.398;7.128;2023-10-31T01:25:24;11.20;99.90
2945;DHT22;1482;51.398;7.128;2023-10-31T01:27:49;11.20;99.90
2945;DHT22;1482;51.398;7.128;2023-10-31T01:30:15;11.20;99.90
2945;DHT22;1482;51.398;7.128;2023-10-31T01:32:40;11.20;99.90
2945;DHT22;1482;51.398;7.128;2023-10-31T01:35:06;11.20;99.90
2945;DHT22;1482;51.398;7.128;2023-10-31T01:37:32;11.20;99.90
2945;DHT22;1482;51.398;7.128;2023-10-31T01:39:57;11.20;1.00
2945;DHT22;1482;51.398;7.128;2023-10-31T01:42:23;11.30;99.90
2945;DHT22;1482;51.398;7.128;2023-10-31T01:44:48;11.20;99.90
2945;DHT22;1482;51.398;7.128;2023-10-31T01:47:14;11.20;99.90
2945;DHT22;1482;51.398;7.128;2023-10-31T01:49:40;11.20;99.90
2945;DHT22;1482;51.398;7.128;2023-10-31T01:52:06;11.30;99.90
2945;DHT22;1482;51.398;7.128;2023-10-31T01:54:35;11.20;99.90
2945;DHT22;1482;51.398;7.128;2023-10-31T01:57:02;11.20;99.90
2945;DHT22;1482;51.398;7.128;2023-10-31T01:59:30;11.20;99.90
2945;DHT22;1482;51.398;7.128;2023-10-31T02:01:57;11.30;99.90
2945;DHT22;1482;51.398;7.128;2023-10-31T02:04:24;11.20;99.90
2945;DHT22;1482;51.398;7.128;2023-10-31T02:06:49;11.20;1.00
2945;DHT22;1482;51.398;7.128;2023-10-31T02:09:15;11.20;1.00
2945;DHT22;1482;51.398;7.128;2023-10-31T02:11:41;11.20;1.00
2945;DHT22;1482;51.398;7.128;2023-10-31T02:14:06;11.20;1.00
2945;DHT22;1482;51.398;7.128;2023-10-31T02:16:32;11.20;1.00
2945;DHT22;1482;51.398;7.128;2023-10-31T02:18:57;11.20;1.00
2945;DHT22;1482;51.398;7.128;2023-10-31T02:21:25;11.10;1.00
2945;DHT22;1482;51.398;7.128;2023-10-31T02:24:04;11.10;6.40
2945;DHT22;1482;51.398;7.128;2023-10-31T02:26:33;11.00;99.90
2945;DHT22;1482;51.398;7.128;2023-10-31T02:29:00;11.10;99.90
2945;DHT22;1482;51.398;7.128;2023-10-31T02:31:27;11.10;99.90
2945;DHT22;1482;51.398;7.128;2023-10-31T02:33:52;11.10;99.90
2945;DHT22;1482;51.398;7.128;2023-10-31T02:36:18;11.10;99.90
2945;DHT22;1482;51.398;7.128;2023-10-31T02:38:45;11.10;99.90
2945;DHT22;1482;51.398;7.128;2023-10-31T02:41:10;11.10;99.90
2945;DHT22;1482;51.398;7.128;2023-10-31T02:43:38;11.10;99.90
2945;DHT22;1482;51.398;7.128;2023-10-31T02:46:04;11.10;99.90
2945;DHT22;1482;51.398;7.128;2023-10-31T02:48:29;11.10;99.90
2945;DHT22;1482;51.398;7.128;2023-10-31T02:50:57;11.10;99.90
2945;DHT22;1482;51.398;7.128;2023-10-31T02:53:23;11.00;99.90
2945;DHT22;1482;51.398;7.128;2023-10-31T02:55:48;11.00;99.90
2945;DHT22;1482;51.398;7.128;2023-10-31T02:58:14;11.00;1.00
2945;DHT22;1482;51.398;7.128;2023-10-31T03:00:40;10.90;1.00
2945;DHT22;1482;51.398;7.128;2023-10-31T03:03:05;11.00;1.00
2945;DHT22;1482;51.398;7.128;2023-10-31T03:05:31;11.00;1.00
2945;DHT22;1482;51.398;7.128;2023-10-31T03:07:56;10.90;1.00
2945;DHT22;1482;51.398;7.128;2023-10-31T03:10:22;11.00;32.40
2945;DHT22;1482;51.398;7.128;2023-10-31T03:12:48;11.00;1.00
2945;DHT22;1482;51.398;7.128;2023-10-31T03:15:13;10.90;1.00
2945;DHT22;1482;51.398;7.128;2023-10-31T03:17:39;11.00;1.00
2945;DHT22;1482;51.398;7.128;2023-10-31T03:20:05;11.00;1.00
2945;DHT22;1482;51.398;7.128;2023-10-31T03:22:31;11.10;1.00
2945;DHT22;1482;51.398;7.128;2023-10-31T03:24:56;11.10;99.90
2945;DHT22;1482;51.398;7.128;2023-10-31T03:27:22;11.10;99.90
2945;DHT22;1482;51.398;7.128;2023-10-31T03:29:48;11.10;99.90
2945;DHT22;1482;51.398;7.128;2023-10-31T03:32:14;11.10;99.90
2945;DHT22;1482;51.398;7.128;2023-10-31T03:34:40;11.20;99.90
2945;DHT22;1482;51.398;7.128;2023-10-31T03:37:05;11.20;99.90
2945;DHT22;1482;51.398;7.128;2023-10-31T03:39:31;11.20;99.90
2945;DHT22;1482;51.398;7.128;2023-10-31T03:41:56;11.20;99.90
2945;DHT22;1482;51.398;7.128;2023-10-31T03:44:22;11.20;99.90
2945;DHT22;1482;51.398;7.128;2023-10-31T03:46:47;11.20;99.90
2945;DHT22;1482;51.398;7.128;2023-10-31T03:49:13;11.10;99.90
2945;DHT22;1482;51.398;7.128;2023-10-31T03:51:39;11.10;99.90
2945;DHT22;1482;51.398;7.128;2023-10-31T03:54:04;11.10;1.00
2945;DHT22;1482;51.398;7.128;2023-10-31T03:56:30;11.10;1.00
2945;DHT22;1482;51.398;7.128;2023-10-31T03:58:55;11.00;1.00
2945;DHT22;1482;51.398;7.128;2023-10-31T04:01:21;11.00;26.40
2945;DHT22;1482;51.398;7.128;2023-10-31T04:03:46;11.00;1.30
2945;DHT22;1482;51.398;7.128;2023-10-31T04:06:12;11.00;1.00
2945;DHT22;1482;51.398;7.128;2023-10-31T04:08:37;11.00;1.00
2945;DHT22;1482;51.398;7.128;2023-10-31T04:11:03;11.00;1.00
2945;DHT22;1482;51.398;7.128;2023-10-31T04:13:29;11.10;1.00
2945;DHT22;1482;51.398;7.128;2023-10-31T04:15:54;11.10;1.00
2945;DHT22;1482;51.398;7.128;2023-10-31T04:18:20;11.10;1.00
2945;DHT22;1482;51.398;7.128;2023-10-31T04:20:45;11.00;1.00
2945;DHT22;1482;51.398;7.128;2023-10-31T04:23:11;11.00;1.00
2945;DHT22;1482;51.398;7.128;2023-10-31T04:25:37;11.00;99.40
2945;DHT22;1482;51.398;7.128;2023-10-31T04:28:03;10.90;99.90
2945;DHT22;1482;51.398;7.128;2023-10-31T04:30:28;10.90;99.90
2945;DHT22;1482;51.398;7.128;2023-10-31T04:32:54;11.00;99.90
2945;DHT22;1482;51.398;7.128;2023-10-31T04:35:19;10.90;99.90
2945;DHT22;1482;51.398;7.128;2023-10-31T04:37:45;10.90;1.00
2945;DHT22;1482;51.398;7.128;2023-10-31T04:40:11;10.90;99.90
2945;DHT22;1482;51.398;7.128;2023-10-31T04:42:38;10.90;1.00
2945;DHT22;1482;51.398;7.128;2023-10-31T04:45:05;10.90;99.90
2945;DHT22;1482;51.398;7.128;2023-10-31T04:47:31;10.90;64.30
2945;DHT22;1482;51.398;7.128;2023-10-31T04:49:57;10.90;99.90
2945;DHT22;1482;51.398;7.128;2023-10-31T04:52:22;11.00;99.90
2945;DHT22;1482;51.398;7.128;2023-10-31T04:54:48;10.90;1.00
2945;DHT22;1482;51.398;7.128;2023-10-31T04:57:13;10.90;99.90
2945;DHT22;1482;51.398;7.128;2023-10-31T04:59:39;10.80;1.00
2945;DHT22;1482;51.398;7.128;2023-10-31T05:02:04;10.90;99.90
2945;DHT22;1482;51.398;7.128;2023-10-31T05:04:30;10.90;99.90
2945;DHT22;1482;51.398;7.128;2023-10-31T05:06:55;10.90;99.90
2945;DHT22;1482;51.398;7.128;2023-10-31T05:09:21;10.90;1.00
2945;DHT22;1482;51.398;7.128;2023-10-31T05:11:48;10.90;99.90
2945;DHT22;1482;51.398;7.128;2023-10-31T05:14:14;10.90;1.00
2945;DHT22;1482;51.398;7.128;2023-10-31T05:16:42;10.90;1.00
2945;DHT22;1482;51.398;7.128;2023-10-31T05:19:09;10.90;99.90
2945;DHT22;1482;51.398;7.128;2023-10-31T05:21:34;10.90;1.00
2945;DHT22;1482;51.398;7.128;2023-10-31T05:24:00;11.00;1.00
2945;DHT22;1482;51.398;7.128;2023-10-31T05:26:26;11.00;1.00
2945;DHT22;1482;51.398;7.128;2023-10-31T05:28:53;11.00;99.90
2945;DHT22;1482;51.398;7.128;2023-10-31T05:31:19;11.00;99.90
2945;DHT22;1482;51.398;7.128;2023-10-31T05:33:45;11.10;1.00
2945;DHT22;1482;51.398;7.128;2023-10-31T05:36:20;11.00;99.90
2945;DHT22;1482;51.398;7.128;2023-10-31T05:38:46;11.00;99.90
2945;DHT22;1482;51.398;7.128;2023-10-31T05:41:12;11.00;99.90
2945;DHT22;1482;51.398;7.128;2023-10-31T05:43:38;11.00;1.00
2945;DHT22;1482;51.398;7.128;2023-10-31T05:46:04;11.00;1.00
2945;DHT22;1482;51.398;7.128;2023-10-31T05:48:31;10.90;1.00
2945;DHT22;1482;51.398;7.128;2023-10-31T05:50:57;10.90;1.00
2945;DHT22;1482;51.398;7.128;2023-10-31T05:53:22;11.00;1.00
2945;DHT22;1482;51.398;7.128;2023-10-31T05:55:48;11.00;1.00
2945;DHT22;1482;51.398;7.128;2023-10-31T05:58:13;11.00;1.00
2945;DHT22;1482;51.398;7.128;2023-10-31T06:00:39;11.00;92.40
2945;DHT22;1482;51.398;7.128;2023-10-31T06:03:04;11.00;99.90
2945;DHT22;1482;51.398;7.128;2023-10-31T06:05:30;11.00;99.90
2945;DHT22;1482;51.398;7.128;2023-10-31T06:07:55;11.00;1.00
2945;DHT22;1482;51.398;7.128;2023-10-31T06:10:21;11.00;1.00
2945;DHT22;1482;51.398;7.128;2023-10-31T06:12:47;11.00;97.60
2945;DHT22;1482;51.398;7.128;2023-10-31T06:15:12;11.00;1.00
2945;DHT22;1482;51.398;7.128;2023-10-31T06:17:38;11.00;1.00
2945;DHT22;1482;51.398;7.128;2023-10-31T06:20:06;11.00;1.00
2945;DHT22;1482;51.398;7.128;2023-10-31T06:22:32;11.10;1.00
2945;DHT22;1482;51.398;7.128;2023-10-31T06:24:58;11.00;1.00
2945;DHT22;1482;51.398;7.128;2023-10-31T06:27:23;11.00;1.00
2945;DHT22;1482;51.398;7.128;2023-10-31T06:29:49;11.10;1.00
2945;DHT22;1482;51.398;7.128;2023-10-31T06:32:15;11.10;99.90
2945;DHT22;1482;51.398;7.128;2023-10-31T06:34:40;11.10;1.00
2945;DHT22;1482;51.398;7.128;2023-10-31T06:37:06;11.10;99.90
2945;DHT22;1482;51.398;7.128;2023-10-31T06:39:31;11.10;1.00
2945;DHT22;1482;51.398;7.128;2023-10-31T06:41:58;11.10;1.00
2945;DHT22;1482;51.398;7.128;2023-10-31T06:44:23;11.10;99.90
2945;DHT22;1482;51.398;7.128;2023-10-31T06:46:49;11.10;99.90
2945;DHT22;1482;51.398;7.128;2023-10-31T06:49:15;11.10;99.90
2945;DHT22;1482;51.398;7.128;2023-10-31T06:51:41;11.10;1.00
2945;DHT22;1482;51.398;7.128;2023-10-31T06:54:06;11.10;99.90
2945;DHT22;1482;51.398;7.128;2023-10-31T06:56:32;11.10;99.90
2945;DHT22;1482;51.398;7.128;2023-10-31T06:58:57;11.10;99.90
2945;DHT22;1482;51.398;7.128;2023-10-31T07:01:23;11.10;99.90
2945;DHT22;1482;51.398;7.128;2023-10-31T07:03:48;11.20;99.90
2945;DHT22;1482;51.398;7.128;2023-10-31T07:06:14;11.10;99.90
2945;DHT22;1482;51.398;7.128;2023-10-31T07:08:40;11.20;99.90
2945;DHT22;1482;51.398;7.128;2023-10-31T07:11:05;11.20;99.90
2945;DHT22;1482;51.398;7.128;2023-10-31T07:13:31;11.20;99.90
2945;DHT22;1482;51.398;7.128;2023-10-31T07:15:56;11.30;99.90
2945;DHT22;1482;51.398;7.128;2023-10-31T07:18:22;11.40;99.90
2945;DHT22;1482;51.398;7.128;2023-10-31T07:20:47;11.40;22.40
2945;DHT22;1482;51.398;7.128;2023-10-31T07:23:13;11.40;52.50
2945;DHT22;1482;51.398;7.128;2023-10-31T07:25:38;11.40;1.00
2945;DHT22;1482;51.398;7.128;2023-10-31T07:28:04;11.40;1.00
2945;DHT22;1482;51.398;7.128;2023-10-31T07:30:30;11.40;1.00
2945;DHT22;1482;51.398;7.128;2023-10-31T07:32:55;11.40;1.00
2945;DHT22;1482;51.398;7.128;2023-10-31T07:35:21;11.50;1.00
2945;DHT22;1482;51.398;7.128;2023-10-31T07:37:47;11.50;1.00
2945;DHT22;1482;51.398;7.128;2023-10-31T07:40:12;11.40;1.00
2945;DHT22;1482;51.398;7.128;2023-10-31T07:42:38;11.50;1.00
2945;DHT22;1482;51.398;7.128;2023-10-31T07:45:04;11.50;1.00
2945;DHT22;1482;51.398;7.128;2023-10-31T07:47:30;11.50;1.00
2945;DHT22;1482;51.398;7.128;2023-10-31T07:49:55;11.50;1.00
2945;DHT22;1482;51.398;7.128;2023-10-31T07:52:21;11.40;1.00
2945;DHT22;1482;51.398;7.128;2023-10-31T07:54:46;11.50;1.00
2945;DHT22;1482;51.398;7.128;2023-10-31T07:57:12;11.40;1.00
2945;DHT22;1482;51.398;7.128;2023-10-31T07:59:37;11.50;1.00
2945;DHT22;1482;51.398;7.128;2023-10-31T08:02:03;11.50;1.00
2945;DHT22;1482;51.398;7.128;2023-10-31T08:04:29;11.50;1.00
2945;DHT22;1482;51.398;7.128;2023-10-31T08:06:55;11.60;1.00
2945;DHT22;1482;51.398;7.128;2023-10-31T08:09:21;11.60;1.00
2945;DHT22;1482;51.398;7.128;2023-10-31T08:11:46;11.60;1.00
2945;DHT22;1482;51.398;7.128;2023-10-31T08:14:12;11.70;1.00
2945;DHT22;1482;51.398;7.128;2023-10-31T08:16:37;11.70;1.00
2945;DHT22;1482;51.398;7.128;2023-10-31T08:19:03;11.70;1.00
2945;DHT22;1482;51.398;7.128;2023-10-31T08:21:29;11.70;99.90
2945;DHT22;1482;51.398;7.128;2023-10-31T08:23:59;11.70;99.90
2945;DHT22;1482;51.398;7.128;2023-10-31T08:26:25;11.70;99.90
2945;DHT22;1482;51.398;7.128;2023-10-31T08:28:50;11.70;99.90
2945;DHT22;1482;51.398;7.128;2023-10-31T08:31:17;11.70;99.90
2945;DHT22;1482;51.398;7.128;2023-10-31T08:33:42;11.70;99.90
2945;DHT22;1482;51.398;7.128;2023-10-31T08:36:08;11.80;99.90
2945;DHT22;1482;51.398;7.128;2023-10-31T08:38:34;11.70;99.90
2945;DHT22;1482;51.398;7.128;2023-10-31T08:41:00;11.70;99.90
2945;DHT22;1482;51.398;7.128;2023-10-31T08:43:26;11.60;99.90
2945;DHT22;1482;51.398;7.128;2023-10-31T08:45:51;11.60;99.90
2945;DHT22;1482;51.398;7.128;2023-10-31T08:48:17;11.50;99.90
2945;DHT22;1482;51.398;7.128;2023-10-31T08:50:43;11.60;1.00
2945;DHT22;1482;51.398;7.128;2023-10-31T08:53:09;11.80;1.00
2945;DHT22;1482;51.398;7.128;2023-10-31T08:55:35;12.00;99.90
2945;DHT22;1482;51.398;7.128;2023-10-31T08:58:00;12.20;99.90
2945;DHT22;1482;51.398;7.128;2023-10-31T09:00:26;12.30;99.90
2945;DHT22;1482;51.398;7.128;2023-10-31T09:02:53;12.30;99.90
2945;DHT22;1482;51.398;7.128;2023-10-31T09:05:19;12.40;99.90
2945;DHT22;1482;51.398;7.128;2023-10-31T09:07:44;12.60;99.90
2945;DHT22;1482;51.398;7.128;2023-10-31T09:10:12;12.90;99.90
2945;DHT22;1482;51.398;7.128;2023-10-31T09:12:37;13.30;99.90
2945;DHT22;1482;51.398;7.128;2023-10-31T09:15:03;13.40;99.90
2945;DHT22;1482;51.398;7.128;2023-10-31T09:17:29;13.30;99.90
2945;DHT22;1482;51.398;7.128;2023-10-31T09:19:55;13.20;99.90
2945;DHT22;1482;51.398;7.128;2023-10-31T09:22:20;13.10;99.90
2945;DHT22;1482;51.398;7.128;2023-10-31T09:24:46;13.10;99.90
2945;DHT22;1482;51.398;7.128;2023-10-31T09:27:11;13.10;99.90
2945;DHT22;1482;51.398;7.128;2023-10-31T09:29:37;13.10;99.90
2945;DHT22;1482;51.398;7.128;2023-10-31T09:32:04;13.10;99.90
2945;DHT22;1482;51.398;7.128;2023-10-31T09:34:30;13.10;99.90
2945;DHT22;1482;51.398;7.128;2023-10-31T09:36:56;13.10;99.90
2945;DHT22;1482;51.398;7.128;2023-10-31T09:39:22;13.20;99.90
2945;DHT22;1482;51.398;7.128;2023-10-31T09:41:48;13.10;99.90
2945;DHT22;1482;51.398;7.128;2023-10-31T09:44:14;13.10;99.90
2945;DHT22;1482;51.398;7.128;2023-10-31T09:46:40;13.40;99.90
2945;DHT22;1482;51.398;7.128;2023-10-31T09:49:07;14.20;99.90
2945;DHT22;1482;51.398;7.128;2023-10-31T09:51:33;14.50;99.90
2945;DHT22;1482;51.398;7.128;2023-10-31T09:54:00;14.50;99.90
2945;DHT22;1482;51.398;7.128;2023-10-31T09:56:28;14.60;99.90
2945;DHT22;1482;51.398;7.128;2023-10-31T09:59:00;14.50;99.90
2945;DHT22;1482;51.398;7.128;2023-10-31T10:01:25;14.50;99.90
2945;DHT22;1482;51.398;7.128;2023-10-31T10:03:51;14.70;99.90
2945;DHT22;1482;51.398;7.128;2023-10-31T10:06:17;14.50;97.20
2945;DHT22;1482;51.398;7.128;2023-10-31T10:08:46;14.50;97.40
2945;DHT22;1482;51.398;7.128;2023-10-31T10:11:12;14.20;99.90
2945;DHT22;1482;51.398;7.128;2023-10-31T10:13:37;14.20;99.90
2945;DHT22;1482;51.398;7.128;2023-10-31T10:16:03;14.30;99.90
2945;DHT22;1482;51.398;7.128;2023-10-31T10:18:34;14.20;99.90
2945;DHT22;1482;51.398;7.128;2023-10-31T10:21:06;14.20;99.90
2945;DHT22;1482;51.398;7.128;2023-10-31T10:23:32;14.00;99.90
2945;DHT22;1482;51.398;7.128;2023-10-31T10:25:59;13.90;99.90
2945;DHT22;1482;51.398;7.128;2023-10-31T10:28:25;13.80;99.90
2945;DHT22;1482;51.398;7.128;2023-10-31T10:30:52;13.90;99.90
2945;DHT22;1482;51.398;7.128;2023-10-31T10:33:20;13.80;99.90
2945;DHT22;1482;51.398;7.128;2023-10-31T10:35:46;13.80;99.90
2945;DHT22;1482;51.398;7.128;2023-10-31T10:38:21;13.60;99.90
2945;DHT22;1482;51.398;7.128;2023-10-31T10:40:48;13.50;99.90
2945;DHT22;1482;51.398;7.128;2023-10-31T10:43:22;13.60;99.90
2945;DHT22;1482;51.398;7.128;2023-10-31T10:45:54;13.60;99.90
2945;DHT22;1482;51.398;7.128;2023-10-31T10:48:21;13.50;99.90
2945;DHT22;1482;51.398;7.128;2023-10-31T10:50:52;13.50;99.90
2945;DHT22;1482;51.398;7.128;2023-10-31T10:53:25;13.50;99.90
2945;DHT22;1482;51.398;7.128;2023-10-31T10:55:55;13.60;99.90
2945;DHT22;1482;51.398;7.128;2023-10-31T10:58:51;13.50;99.90
2945;DHT22;1482;51.398;7.128;2023-10-31T11:01:18;13.50;99.90
2945;DHT22;1482;51.398;7.128;2023-10-31T11:03:45;13.50;99.90
2945;DHT22;1482;51.398;7.128;2023-10-31T11:06:12;13.50;99.90
2945;DHT22;1482;51.398;7.128;2023-10-31T11:08:39;13.50;99.90
2945;DHT22;1482;51.398;7.128;2023-10-31T11:11:05;13.50;99.90
2945;DHT22;1482;51.398;7.128;2023-10-31T11:13:32;13.50;99.90
2945;DHT22;1482;51.398;7.128;2023-10-31T11:16:02;13.50;99.90
2945;DHT22;1482;51.398;7.128;2023-10-31T11:18:30;13.80;99.90
2945;DHT22;1482;51.398;7.128;2023-10-31T11:20:56;14.10;99.90
2945;DHT22;1482;51.398;7.128;2023-10-31T11:23:21;14.20;99.90
2945;DHT22;1482;51.398;7.128;2023-10-31T11:25:49;14.30;99.90
2945;DHT22;1482;51.398;7.128;2023-10-31T11:28:17;14.40;99.90
2945;DHT22;1482;51.398;7.128;2023-10-31T11:30:48;14.50;99.90
2945;DHT22;1482;51.398;7.128;2023-10-31T11:33:15;14.70;99.90
2945;DHT22;1482;51.398;7.128;2023-10-31T11:35:41;15.00;99.90
2945;DHT22;1482;51.398;7.128;2023-10-31T11:38:10;15.10;85.10
2945;DHT22;1482;51.398;7.128;2023-10-31T11:43:14;15.30;81.40
2945;DHT22;1482;51.398;7.128;2023-10-31T11:45:44;15.10;72.30
2945;DHT22;1482;51.398;7.128;2023-10-31T11:48:12;15.10;71.60
2945;DHT22;1482;51.398;7.128;2023-10-31T11:50:38;15.20;69.00
2945;DHT22;1482;51.398;7.128;2023-10-31T11:53:14;15.00;58.40
2945;DHT22;1482;51.398;7.128;2023-10-31T11:55:47;14.90;65.50
2945;DHT22;1482;51.398;7.128;2023-10-31T11:58:25;14.90;65.30
2945;DHT22;1482;51.398;7.128;2023-10-31T12:01:04;14.90;64.70
2945;DHT22;1482;51.398;7.128;2023-10-31T12:03:38;14.70;59.30
2945;DHT22;1482;51.398;7.128;2023-10-31T12:06:05;14.70;57.90
2945;DHT22;1482;51.398;7.128;2023-10-31T12:08:33;14.60;52.90
2945;DHT22;1482;51.398;7.128;2023-10-31T12:14:02;14.70;61.10
2945;DHT22;1482;51.398;7.128;2023-10-31T12:16:31;14.80;69.40
2945;DHT22;1482;51.398;7.128;2023-10-31T12:19:05;14.80;72.40
2945;DHT22;1482;51.398;7.128;2023-10-31T12:21:49;15.10;66.40
2945;DHT22;1482;51.398;7.128;2023-10-31T12:24:16;15.40;63.80
2945;DHT22;1482;51.398;7.128;2023-10-31T12:26:43;15.60;53.70
2945;DHT22;1482;51.398;7.128;2023-10-31T12:29:15;15.90;51.30
2945;DHT22;1482;51.398;7.128;2023-10-31T12:31:53;16.30;51.30
2945;DHT22;1482;51.398;7.128;2023-10-31T12:34:21;16.50;36.70
2945;DHT22;1482;51.398;7.128;2023-10-31T12:36:49;16.50;31.10
2945;DHT22;1482;51.398;7.128;2023-10-31T12:39:16;16.70;25.40
2945;DHT22;1482;51.398;7.128;2023-10-31T12:41:43;16.80;22.60
2945;DHT22;1482;51.398;7.128;2023-10-31T12:44:09;16.90;21.40
2945;DHT22;1482;51.398;7.128;2023-10-31T12:46:39;16.80;20.30
2945;DHT22;1482;51.398;7.128;2023-10-31T12:49:11;16.90;20.20
2945;DHT22;1482;51.398;7.128;2023-10-31T12:51:38;16.70;18.20
2945;DHT22;1482;51.398;7.128;2023-10-31T12:54:03;16.70;20.10
2945;DHT22;1482;51.398;7.128;2023-10-31T12:59:09;16.70;19.80
2945;DHT22;1482;51.398;7.128;2023-10-31T13:01:43;16.70;20.50
2945;DHT22;1482;51.398;7.128;2023-10-31T13:04:08;16.60;18.40
2945;DHT22;1482;51.398;7.128;2023-10-31T13:06:35;16.70;20.40
2945;DHT22;1482;51.398;7.128;2023-10-31T13:09:01;16.70;20.30
2945;DHT22;1482;51.398;7.128;2023-10-31T13:11:31;16.80;18.40
2945;DHT22;1482;51.398;7.128;2023-10-31T13:13:57;16.80;16.70
2945;DHT22;1482;51.398;7.128;2023-10-31T13:16:24;16.90;17.90
2945;DHT22;1482;51.398;7.128;2023-10-31T13:18:52;16.80;13.70
2945;DHT22;1482;51.398;7.128;2023-10-31T13:21:18;16.60;10.90
2945;DHT22;1482;51.398;7.128;2023-10-31T13:23:43;16.60;11.10
2945;DHT22;1482;51.398;7.128;2023-10-31T13:26:11;16.40;9.70
2945;DHT22;1482;51.398;7.128;2023-10-31T13:28:37;16.20;8.40
2945;DHT22;1482;51.398;7.128;2023-10-31T13:31:05;15.80;9.50
2945;DHT22;1482;51.398;7.128;2023-10-31T13:33:31;15.70;11.80
2945;DHT22;1482;51.398;7.128;2023-10-31T13:35:56;15.60;14.40
2945;DHT22;1482;51.398;7.128;2023-10-31T13:38:22;15.40;13.00
2945;DHT22;1482;51.398;7.128;2023-10-31T13:40:47;15.20;13.40
2945;DHT22;1482;51.398;7.128;2023-10-31T13:43:13;15.10;16.20
2945;DHT22;1482;51.398;7.128;2023-10-31T13:45:38;15.00;20.40
2945;DHT22;1482;51.398;7.128;2023-10-31T13:48:04;15.00;25.20
2945;DHT22;1482;51.398;7.128;2023-10-31T13:50:30;15.00;24.90
2945;DHT22;1482;51.398;7.128;2023-10-31T13:52:56;15.00;28.00
2945;DHT22;1482;51.398;7.128;2023-10-31T13:55:21;15.10;25.60
2945;DHT22;1482;51.398;7.128;2023-10-31T13:57:49;15.10;29.00
2945;DHT22;1482;51.398;7.128;2023-10-31T14:00:15;15.20;28.90
2945;DHT22;1482;51.398;7.128;2023-10-31T14:02:40;15.30;27.80
2945;DHT22;1482;51.398;7.128;2023-10-31T14:05:06;15.20;22.00
2945;DHT22;1482;51.398;7.128;2023-10-31T14:07:32;15.20;21.70
2945;DHT22;1482;51.398;7.128;2023-10-31T14:09:58;15.20;22.30
2945;DHT22;1482;51.398;7.128;2023-10-31T14:12:24;15.10;20.50
2945;DHT22;1482;51.398;7.128;2023-10-31T14:14:51;15.00;20.50
2945;DHT22;1482;51.398;7.128;2023-10-31T14:17:16;15.10;22.10
2945;DHT22;1482;51.398;7.128;2023-10-31T14:19:42;15.10;25.00
2945;DHT22;1482;51.398;7.128;2023-10-31T14:22:08;15.10;34.90
2945;DHT22;1482;51.398;7.128;2023-10-31T14:24:34;15.10;25.10
2945;DHT22;1482;51.398;7.128;2023-10-31T14:27:00;15.10;24.50
2945;DHT22;1482;51.398;7.128;2023-10-31T14:29:26;15.00;25.50
2945;DHT22;1482;51.398;7.128;2023-10-31T14:31:52;15.00;25.90
2945;DHT22;1482;51.398;7.128;2023-10-31T14:34:22;14.90;26.90
2945;DHT22;1482;51.398;7.128;2023-10-31T14:36:48;14.80;28.10
2945;DHT22;1482;51.398;7.128;2023-10-31T14:39:14;14.70;30.40
2945;DHT22;1482;51.398;7.128;2023-10-31T14:41:39;14.70;30.60
2945;DHT22;1482;51.398;7.128;2023-10-31T14:44:05;14.70;36.00
2945;DHT22;1482;51.398;7.128;2023-10-31T14:46:31;14.60;35.80
2945;DHT22;1482;51.398;7.128;2023-10-31T14:48:58;14.50;37.50
2945;DHT22;1482;51.398;7.128;2023-10-31T14:51:23;14.50;38.20
2945;DHT22;1482;51.398;7.128;2023-10-31T14:53:49;14.40;41.20
2945;DHT22;1482;51.398;7.128;2023-10-31T14:56:15;14.30;43.10
2945;DHT22;1482;51.398;7.128;2023-10-31T14:58:41;14.30;44.90
2945;DHT22;1482;51.398;7.128;2023-10-31T15:01:07;14.20;45.30
2945;DHT22;1482;51.398;7.128;2023-10-31T15:03:32;14.20;47.00
2945;DHT22;1482;51.398;7.128;2023-10-31T15:05:58;14.00;47.80
2945;DHT22;1482;51.398;7.128;2023-10-31T15:08:24;14.00;48.70
2945;DHT22;1482;51.398;7.128;2023-10-31T15:10:51;13.90;51.70
2945;DHT22;1482;51.398;7.128;2023-10-31T15:13:17;13.80;54.10
2945;DHT22;1482;51.398;7.128;2023-10-31T15:15:43;13.80;56.60
2945;DHT22;1482;51.398;7.128;2023-10-31T15:18:08;13.80;57.00
2945;DHT22;1482;51.398;7.128;2023-10-31T15:20:34;13.70;57.50
2945;DHT22;1482;51.398;7.128;2023-10-31T15:23:00;13.60;58.20
2945;DHT22;1482;51.398;7.128;2023-10-31T15:25:25;13.60;63.60
2945;DHT22;1482;51.398;7.128;2023-10-31T15:27:51;13.40;65.90
2945;DHT22;1482;51.398;7.128;2023-10-31T15:30:16;13.40;70.40
2945;DHT22;1482;51.398;7.128;2023-10-31T15:32:42;13.40;72.80
2945;DHT22;1482;51.398;7.128;2023-10-31T15:35:08;13.40;75.50
2945;DHT22;1482;51.398;7.128;2023-10-31T15:37:34;13.30;74.40
2945;DHT22;1482;51.398;7.128;2023-10-31T15:40:00;13.20;76.60
2945;DHT22;1482;51.398;7.128;2023-10-31T15:42:26;13.20;79.00
2945;DHT22;1482;51.398;7.128;2023-10-31T15:44:52;13.10;79.40
2945;DHT22;1482;51.398;7.128;2023-10-31T15:47:20;13.10;81.30
2945;DHT22;1482;51.398;7.128;2023-10-31T15:49:45;13.00;86.40
2945;DHT22;1482;51.398;7.128;2023-10-31T15:52:11;13.00;91.30
2945;DHT22;1482;51.398;7.128;2023-10-31T15:54:36;12.90;90.50
2945;DHT22;1482;51.398;7.128;2023-10-31T15:57:02;12.90;93.10
2945;DHT22;1482;51.398;7.128;2023-10-31T15:59:28;12.80;94.00
2945;DHT22;1482;51.398;7.128;2023-10-31T16:01:53;12.80;98.10
2945;DHT22;1482;51.398;7.128;2023-10-31T16:04:19;12.80;99.40
2945;DHT22;1482;51.398;7.128;2023-10-31T16:06:45;12.70;99.90
2945;DHT22;1482;51.398;7.128;2023-10-31T16:09:12;12.70;99.90